Time,TemperatureF,DewpointF,PressureIn,WindDirection,WindDirectionDegrees,WindSpeedMPH,WindSpeedGustMPH,Humidity,HourlyPrecipIn,Conditions,Clouds,dailyrainin,SolarRadiationWatts/m^2,SoftwareType,DateUTC
2013-01-29 00:00:00,63.7,58.8,29.35,South,180,25.0,34.0,84,0.00,,---,0.00,0.00,VWS V14.01,2013-01-29 06:00:00,
2013-01-29 00:05:00,63.7,58.8,29.35,South,180,22.0,33.0,84,0.00,,---,0.00,0.00,VWS V14.01,2013-01-29 06:05:00,
2013-01-29 00:10:00,63.7,58.8,29.35,South,180,21.0,29.0,84,0.00,,---,0.00,0.00,VWS V14.01,2013-01-29 06:10:00,
2013-01-29 00:15:00,63.4,58.5,29.35,South,180,23.0,31.0,84,0.00,,---,0.00,0.00,VWS V14.01,2013-01-29 06:15:00,
2013-01-29 00:20:00,63.4,58.5,29.35,South,180,24.0,32.0,84,0.00,,---,0.00,0.00,VWS V14.01,2013-01-29 06:20:00,
2013-01-29 00:25:00,63.2,58.3,29.35,South,180,24.0,33.0,84,0.00,,---,0.00,0.00,VWS V14.01,2013-01-29 06:25:00,
2013-01-29 00:30:00,63.2,58.3,29.34,South,180,23.0,32.0,84,0.00,,---,0.00,0.00,VWS V14.01,2013-01-29 06:30:00,
2013-01-29 00:35:00,63.1,58.2,29.34,SSW,202,22.0,31.0,84,0.00,,---,0.00,0.00,VWS V14.01,2013-01-29 06:35:00,
2013-01-29 00:40:00,62.9,58.0,29.34,South,180,22.0,28.0,84,0.00,,---,0.00,0.00,VWS V14.01,2013-01-29 06:40:00,
2013-01-29 00:45:00,62.9,58.3,29.34,South,180,23.0,33.0,85,0.00,,---,0.00,0.00,VWS V14.01,2013-01-29 06:45:00,
2013-01-29 00:50:00,62.9,58.3,29.34,South,180,23.0,30.0,85,0.00,,---,0.00,0.00,VWS V14.01,2013-01-29 06:50:00,
2013-01-29 00:55:00,62.9,58.3,29.34,South,180,23.0,32.0,85,0.00,,---,0.00,0.00,VWS V14.01,2013-01-29 06:55:00,
2013-01-29 01:00:00,62.9,58.0,29.33,South,180,25.0,35.0,84,0.00,,---,0.00,0.00,VWS V14.01,2013-01-29 07:00:00,
2013-01-29 01:05:00,62.9,58.0,29.33,South,180,23.0,29.0,84,0.00,,---,0.00,0.00,VWS V14.01,2013-01-29 07:05:00,
2013-01-29 01:10:00,62.6,57.4,29.33,South,180,22.0,29.0,83,0.00,,---,0.00,0.00,VWS V14.01,2013-01-29 07:10:00,
2013-01-29 01:15:00,62.6,57.4,29.33,SSW,202,23.0,29.0,83,0.00,,---,0.00,0.00,VWS V14.01,2013-01-29 07:15:00,
2013-01-29 01:20:00,62.4,57.2,29.33,SSW,202,24.0,32.0,83,0.00,,---,0.00,0.00,VWS V14.01,2013-01-29 07:20:00,
2013-01-29 01:25:00,62.3,57.1,29.33,SW,225,22.0,31.0,83,0.00,,---,0.00,0.00,VWS V14.01,2013-01-29 07:25:00,
2013-01-29 01:30:00,61.8,56.6,29.37,West,270,17.0,33.0,83,0.00,,---,0.00,0.00,VWS V14.01,2013-01-29 07:30:00,
2013-01-29 01:35:00,53.5,42.4,29.37,WNW,292,24.0,33.0,66,0.00,,---,0.00,0.00,VWS V14.01,2013-01-29 07:35:00,
2013-01-29 01:40:00,49.1,38.2,29.37,WNW,292,19.0,28.0,66,0.00,,---,0.00,0.00,VWS V14.01,2013-01-29 07:40:00,
2013-01-29 01:45:00,45.8,36.6,29.42,WNW,292,17.0,24.0,70,0.00,,---,0.00,0.00,VWS V14.01,2013-01-29 07:45:00,
2013-01-29 01:50:00,43.5,35.8,29.42,WNW,292,16.0,20.0,74,0.00,,---,0.00,0.00,VWS V14.01,2013-01-29 07:50:00,
2013-01-29 01:55:00,42.8,35.4,29.42,WNW,292,14.0,22.0,75,0.00,,---,0.00,0.00,VWS V14.01,2013-01-29 07:55:00,
2013-01-29 02:00:00,40.5,34.5,29.44,WNW,292,16.0,24.0,79,0.00,,---,0.00,0.00,VWS V14.01,2013-01-29 08:00:00,
2013-01-29 02:05:00,39.6,34.3,29.44,WNW,292,14.0,22.0,81,0.00,,---,0.00,0.00,VWS V14.01,2013-01-29 08:05:00,
2013-01-29 02:10:00,38.9,34.2,29.44,WNW,292,15.0,25.0,83,0.00,,---,0.00,0.00,VWS V14.01,2013-01-29 08:10:00,
2013-01-29 02:15:00,38.6,34.5,29.45,WNW,292,13.0,20.0,85,0.00,,---,0.00,0.00,VWS V14.01,2013-01-29 08:15:00,
2013-01-29 02:20:00,38.3,34.5,29.45,WNW,292,15.0,24.0,86,0.00,,---,0.00,0.00,VWS V14.01,2013-01-29 08:20:00,
2013-01-29 02:25:00,38.2,34.7,29.45,WNW,292,15.0,25.0,87,0.00,,---,0.00,0.00,VWS V14.01,2013-01-29 08:25:00,
2013-01-29 02:30:00,38.2,35.0,29.45,WNW,292,12.0,20.0,88,0.00,,---,0.00,0.00,VWS V14.01,2013-01-29 08:30:00,
2013-01-29 02:35:00,37.9,35.0,29.45,NW,315,13.0,20.0,89,0.00,,---,0.00,0.00,VWS V14.01,2013-01-29 08:35:00,
2013-01-29 02:40:00,37.6,34.7,29.45,NW,315,13.0,20.0,89,0.00,,---,0.00,0.00,VWS V14.01,2013-01-29 08:40:00,
2013-01-29 02:45:00,37.5,35.1,29.45,NW,315,10.0,17.0,91,0.00,,---,0.00,0.00,VWS V14.01,2013-01-29 08:45:00,
2013-01-29 02:50:00,37.2,34.8,29.45,NW,315,13.0,20.0,91,0.00,,---,0.00,0.00,VWS V14.01,2013-01-29 08:50:00,
2013-01-29 02:55:00,37.0,34.9,29.45,WNW,292,17.0,22.0,92,0.00,,---,0.00,0.00,VWS V14.01,2013-01-29 08:55:00,
2013-01-29 03:00:00,37.0,34.9,29.46,WNW,292,18.0,21.0,92,0.00,,---,0.00,0.00,VWS V14.01,2013-01-29 09:00:00,
2013-01-29 03:05:00,37.0,35.2,29.46,WNW,292,17.0,21.0,93,0.00,,---,0.00,0.00,VWS V14.01,2013-01-29 09:05:00,
2013-01-29 03:10:00,37.0,35.2,29.46,NNW,338,14.0,21.0,93,0.00,,---,0.00,0.00,VWS V14.01,2013-01-29 09:10:00,
2013-01-29 03:15:00,37.2,35.6,29.48,WNW,292,10.0,16.0,94,0.00,,---,0.00,0.00,VWS V14.01,2013-01-29 09:15:00,
2013-01-29 03:20:00,37.3,35.7,29.48,WNW,292,11.0,17.0,94,0.00,,---,0.00,0.00,VWS V14.01,2013-01-29 09:20:00,
2013-01-29 03:25:00,37.3,35.7,29.48,WNW,292,13.0,17.0,94,0.00,,---,0.00,0.00,VWS V14.01,2013-01-29 09:25:00,
2013-01-29 03:30:00,37.3,35.7,29.46,NW,315,13.0,18.0,94,0.00,,---,0.00,0.00,VWS V14.01,2013-01-29 09:30:00,
2013-01-29 03:35:00,37.3,36.0,29.46,NNW,338,10.0,16.0,95,0.00,,---,0.00,0.00,VWS V14.01,2013-01-29 09:35:00,
2013-01-29 03:40:00,37.2,35.9,29.46,NNW,338,13.0,20.0,95,0.00,,---,0.00,0.00,VWS V14.01,2013-01-29 09:40:00,
2013-01-29 03:45:00,37.2,35.9,29.47,WNW,292,15.0,19.0,95,0.00,,---,0.00,0.00,VWS V14.01,2013-01-29 09:45:00,
2013-01-29 03:50:00,37.2,35.9,29.47,North,0,11.0,18.0,95,0.00,,---,0.00,0.00,VWS V14.01,2013-01-29 09:50:00,
2013-01-29 03:55:00,37.2,36.2,29.47,North,0,13.0,19.0,96,0.00,,---,0.00,0.00,VWS V14.01,2013-01-29 09:55:00,
2013-01-29 04:00:00,37.2,36.2,29.46,North,0,10.0,17.0,96,0.00,,---,0.00,0.00,VWS V14.01,2013-01-29 10:00:00,
2013-01-29 04:05:00,37.2,36.2,29.46,North,0,10.0,16.0,96,0.00,,---,0.00,0.00,VWS V14.01,2013-01-29 10:05:00,
2013-01-29 04:10:00,37.2,36.2,29.46,North,0,8.0,12.0,96,0.00,,---,0.00,0.00,VWS V14.01,2013-01-29 10:10:00,
2013-01-29 04:15:00,37.3,36.3,29.48,North,0,6.0,10.0,96,0.00,,---,0.00,0.00,VWS V14.01,2013-01-29 10:15:00,
2013-01-29 04:20:00,37.3,36.3,29.48,NW,315,9.0,13.0,96,0.00,,---,0.00,0.00,VWS V14.01,2013-01-29 10:20:00,
2013-01-29 04:25:00,37.3,36.3,29.48,NW,315,10.0,14.0,96,0.00,,---,0.00,0.00,VWS V14.01,2013-01-29 10:25:00,
2013-01-29 04:30:00,37.5,36.5,29.48,North,0,8.0,10.0,96,0.00,,---,0.00,0.00,VWS V14.01,2013-01-29 10:30:00,
2013-01-29 04:35:00,37.5,36.5,29.48,North,0,7.0,13.0,96,0.00,,---,0.00,0.00,VWS V14.01,2013-01-29 10:35:00,
2013-01-29 04:40:00,37.6,36.6,29.48,NW,315,10.0,12.0,96,0.00,,---,0.00,0.00,VWS V14.01,2013-01-29 10:40:00,
2013-01-29 04:45:00,37.6,36.6,29.47,North,0,12.0,16.0,96,0.00,,---,0.00,0.00,VWS V14.01,2013-01-29 10:45:00,
2013-01-29 04:50:00,37.6,36.6,29.47,North,0,11.0,17.0,96,0.00,,---,0.00,0.00,VWS V14.01,2013-01-29 10:50:00,
2013-01-29 04:55:00,37.6,36.6,29.47,North,0,11.0,16.0,96,0.00,,---,0.00,0.00,VWS V14.01,2013-01-29 10:55:00,
2013-01-29 05:00:00,37.5,36.5,29.47,North,0,13.0,20.0,96,0.00,,---,0.00,0.00,VWS V14.01,2013-01-29 11:00:00,
2013-01-29 05:05:00,37.3,36.3,29.47,North,0,9.0,16.0,96,0.00,,---,0.00,0.00,VWS V14.01,2013-01-29 11:05:00,
2013-01-29 05:10:00,37.3,36.3,29.47,North,0,9.0,12.0,96,0.00,,---,0.00,0.00,VWS V14.01,2013-01-29 11:10:00,
2013-01-29 05:15:00,37.3,36.3,29.51,North,0,9.0,14.0,96,0.00,,---,0.00,0.00,VWS V14.01,2013-01-29 11:15:00,
2013-01-29 05:20:00,37.3,36.3,29.51,North,0,7.0,11.0,96,0.00,,---,0.00,0.00,VWS V14.01,2013-01-29 11:20:00,
2013-01-29 05:25:00,37.3,36.3,29.51,North,0,7.0,11.0,96,0.00,,---,0.00,0.00,VWS V14.01,2013-01-29 11:25:00,
2013-01-29 05:30:00,37.3,36.3,29.50,North,0,9.0,14.0,96,0.00,,---,0.00,0.00,VWS V14.01,2013-01-29 11:30:00,
2013-01-29 05:35:00,37.3,36.3,29.50,North,0,12.0,18.0,96,0.00,,---,0.00,0.00,VWS V14.01,2013-01-29 11:35:00,
2013-01-29 05:40:00,37.2,36.2,29.50,North,0,10.0,17.0,96,0.00,,---,0.00,0.00,VWS V14.01,2013-01-29 11:40:00,
2013-01-29 05:45:00,37.2,36.2,29.50,North,0,8.0,12.0,96,0.00,,---,0.00,0.00,VWS V14.01,2013-01-29 11:45:00,
2013-01-29 05:50:00,37.0,35.7,29.50,North,0,10.0,16.0,95,0.00,,---,0.00,0.00,VWS V14.01,2013-01-29 11:50:00,
2013-01-29 05:55:00,37.0,35.7,29.50,NNW,338,9.0,14.0,95,0.00,,---,0.00,0.00,VWS V14.01,2013-01-29 11:55:00,
2013-01-29 06:00:00,37.0,35.7,29.51,NNW,338,9.0,15.0,95,0.00,,---,0.00,0.00,VWS V14.01,2013-01-29 12:00:00,
2013-01-29 06:05:00,37.2,35.9,29.51,North,0,9.0,14.0,95,0.00,,---,0.00,0.00,VWS V14.01,2013-01-29 12:05:00,
2013-01-29 06:10:00,37.2,35.9,29.51,North,0,7.0,11.0,95,0.00,,---,0.00,0.00,VWS V14.01,2013-01-29 12:10:00,
2013-01-29 06:15:00,37.0,35.7,29.50,North,0,8.0,11.0,95,0.00,,---,0.00,0.00,VWS V14.01,2013-01-29 12:15:00,
2013-01-29 06:20:00,37.0,35.7,29.50,NW,315,9.0,13.0,95,0.00,,---,0.00,0.00,VWS V14.01,2013-01-29 12:20:00,
2013-01-29 06:25:00,37.0,35.4,29.50,North,0,10.0,17.0,94,0.00,,---,0.00,0.00,VWS V14.01,2013-01-29 12:25:00,
2013-01-29 06:30:00,37.0,35.4,29.48,North,0,10.0,14.0,94,0.00,,---,0.00,0.00,VWS V14.01,2013-01-29 12:30:00,
2013-01-29 06:35:00,37.0,35.4,29.48,North,0,13.0,18.0,94,0.00,,---,0.00,0.00,VWS V14.01,2013-01-29 12:35:00,
2013-01-29 06:40:00,36.9,35.3,29.48,NW,315,14.0,19.0,94,0.00,,---,0.00,0.00,VWS V14.01,2013-01-29 12:40:00,
2013-01-29 06:45:00,36.9,35.3,29.48,NNW,338,14.0,20.0,94,0.00,,---,0.00,0.00,VWS V14.01,2013-01-29 12:45:00,
2013-01-29 06:50:00,36.9,35.3,29.48,North,0,10.0,16.0,94,0.00,,---,0.00,0.00,VWS V14.01,2013-01-29 12:50:00,
2013-01-29 06:55:00,36.9,35.3,29.48,North,0,10.0,18.0,94,0.00,,---,0.00,0.00,VWS V14.01,2013-01-29 12:55:00,
2013-01-29 07:00:00,36.9,35.3,29.47,North,0,10.0,19.0,94,0.00,,---,0.00,0.00,VWS V14.01,2013-01-29 13:00:00,
2013-01-29 07:05:00,36.9,35.1,29.47,North,0,9.0,14.0,93,0.00,,---,0.00,0.00,VWS V14.01,2013-01-29 13:05:00,
2013-01-29 07:10:00,36.8,35.0,29.47,North,0,9.0,14.0,93,0.00,,---,0.00,0.00,VWS V14.01,2013-01-29 13:10:00,
2013-01-29 07:15:00,36.8,35.0,29.48,North,0,9.0,14.0,93,0.00,,---,0.00,0.00,VWS V14.01,2013-01-29 13:15:00,
2013-01-29 07:20:00,36.8,35.0,29.48,NW,315,9.0,13.0,93,0.00,,---,0.00,0.00,VWS V14.01,2013-01-29 13:20:00,
2013-01-29 07:25:00,36.8,35.0,29.48,North,0,8.0,11.0,93,0.00,,---,0.00,0.00,VWS V14.01,2013-01-29 13:25:00,
2013-01-29 07:30:00,36.6,34.8,29.49,WNW,292,8.0,12.0,93,0.00,,---,0.00,0.00,VWS V14.01,2013-01-29 13:30:00,
2013-01-29 07:35:00,36.6,34.8,29.49,WNW,292,9.0,11.0,93,0.00,,---,0.00,0.00,VWS V14.01,2013-01-29 13:35:00,
2013-01-29 07:40:00,36.6,34.5,29.49,WNW,292,9.0,12.0,92,0.00,,---,0.00,0.00,VWS V14.01,2013-01-29 13:40:00,
2013-01-29 07:45:00,36.5,34.4,29.48,North,0,8.0,13.0,92,0.00,,---,0.00,0.00,VWS V14.01,2013-01-29 13:45:00,
2013-01-29 07:50:00,36.3,34.2,29.48,North,0,9.0,12.0,92,0.00,,---,0.00,0.00,VWS V14.01,2013-01-29 13:50:00,
2013-01-29 07:55:00,36.2,34.1,29.48,NW,315,9.0,12.0,92,0.00,,---,0.00,5.00,VWS V14.01,2013-01-29 13:55:00,
2013-01-29 08:00:00,36.0,33.9,29.47,NNW,338,9.0,11.0,92,0.00,,---,0.00,13.00,VWS V14.01,2013-01-29 14:00:00,
2013-01-29 08:05:00,35.9,33.8,29.47,North,0,10.0,14.0,92,0.00,,---,0.00,16.00,VWS V14.01,2013-01-29 14:05:00,
2013-01-29 08:10:00,35.9,33.5,29.47,NW,315,8.0,12.0,91,0.00,,---,0.00,25.00,VWS V14.01,2013-01-29 14:10:00,
2013-01-29 08:15:00,35.8,33.4,29.47,North,0,10.0,14.0,91,0.00,,---,0.00,26.00,VWS V14.01,2013-01-29 14:15:00,
2013-01-29 08:20:00,35.8,33.4,29.47,NNW,338,9.0,13.0,91,0.00,,---,0.00,30.00,VWS V14.01,2013-01-29 14:20:00,
2013-01-29 08:25:00,35.8,33.4,29.47,North,0,8.0,11.0,91,0.00,,---,0.00,30.00,VWS V14.01,2013-01-29 14:25:00,
2013-01-29 08:30:00,35.8,33.4,29.48,North,0,8.0,12.0,91,0.00,,---,0.00,23.00,VWS V14.01,2013-01-29 14:30:00,
2013-01-29 08:35:00,35.8,33.4,29.48,North,0,9.0,11.0,91,0.00,,---,0.00,27.00,VWS V14.01,2013-01-29 14:35:00,
2013-01-29 08:40:00,35.8,33.4,29.48,North,0,10.0,14.0,91,0.00,,---,0.00,46.00,VWS V14.01,2013-01-29 14:40:00,
2013-01-29 08:45:00,35.9,33.3,29.46,North,0,10.0,14.0,90,0.00,,---,0.00,74.00,VWS V14.01,2013-01-29 14:45:00,
2013-01-29 08:50:00,35.9,33.3,29.46,North,0,9.0,13.0,90,0.00,,---,0.00,81.00,VWS V14.01,2013-01-29 14:50:00,
2013-01-29 08:55:00,35.9,33.3,29.46,NNE,22,9.0,13.0,90,0.00,,---,0.00,62.00,VWS V14.01,2013-01-29 14:55:00,
2013-01-29 09:00:00,36.0,33.4,29.46,NNE,22,9.0,11.0,90,0.00,,---,0.00,58.00,VWS V14.01,2013-01-29 15:00:00,
2013-01-29 09:05:00,36.0,33.1,29.46,NNE,22,9.0,13.0,89,0.00,,---,0.00,62.00,VWS V14.01,2013-01-29 15:05:00,
2013-01-29 09:10:00,35.9,33.0,29.46,SSE,158,12.0,16.0,89,0.00,,---,0.00,60.00,VWS V14.01,2013-01-29 15:10:00,
2013-01-29 09:15:00,35.9,33.0,29.45,SSE,158,11.0,14.0,89,0.00,,---,0.00,63.00,VWS V14.01,2013-01-29 15:15:00,
2013-01-29 09:20:00,35.9,33.0,29.45,ENE,68,10.0,13.0,89,0.00,,---,0.00,54.00,VWS V14.01,2013-01-29 15:20:00,
2013-01-29 09:25:00,35.9,32.7,29.45,WNW,292,12.0,17.0,88,0.00,,---,0.00,42.00,VWS V14.01,2013-01-29 15:25:00,
2013-01-29 09:30:00,35.9,32.7,29.45,NNE,22,12.0,16.0,88,0.00,,---,0.00,48.00,VWS V14.01,2013-01-29 15:30:00,
2013-01-29 09:35:00,35.8,32.6,29.45,NNE,22,13.0,17.0,88,0.00,,---,0.00,48.00,VWS V14.01,2013-01-29 15:35:00,
2013-01-29 09:40:00,35.8,32.3,29.45,SSW,202,13.0,20.0,87,0.00,,---,0.00,55.00,VWS V14.01,2013-01-29 15:40:00,
2013-01-29 09:45:00,35.9,32.4,29.45,WSW,248,16.0,21.0,87,0.00,,---,0.00,53.00,VWS V14.01,2013-01-29 15:45:00,
2013-01-29 09:50:00,35.8,32.0,29.45,WNW,292,14.0,19.0,86,0.00,,---,0.00,39.00,VWS V14.01,2013-01-29 15:50:00,
2013-01-29 09:55:00,35.8,32.0,29.45,SW,225,15.0,20.0,86,0.00,,---,0.00,35.00,VWS V14.01,2013-01-29 15:55:00,
2013-01-29 10:00:00,35.6,31.5,29.44,North,0,15.0,20.0,85,0.00,,---,0.00,53.00,VWS V14.01,2013-01-29 16:00:00,
2013-01-29 10:05:00,35.8,31.7,29.44,North,0,13.0,19.0,85,0.00,,---,0.00,73.00,VWS V14.01,2013-01-29 16:05:00,
2013-01-29 10:10:00,35.9,31.8,29.44,North,0,13.0,18.0,85,0.00,,---,0.00,69.00,VWS V14.01,2013-01-29 16:10:00,
2013-01-29 10:15:00,35.9,31.5,29.44,North,0,13.0,17.0,84,0.00,,---,0.00,78.00,VWS V14.01,2013-01-29 16:15:00,
2013-01-29 10:20:00,36.0,31.6,29.44,NE,45,14.0,17.0,84,0.00,,---,0.00,107.00,VWS V14.01,2013-01-29 16:20:00,
2013-01-29 10:25:00,36.2,31.5,29.44,North,0,13.0,18.0,83,0.00,,---,0.00,99.00,VWS V14.01,2013-01-29 16:25:00,
2013-01-29 10:30:00,36.2,31.5,29.46,North,0,12.0,19.0,83,0.00,,---,0.00,54.00,VWS V14.01,2013-01-29 16:30:00,
2013-01-29 10:35:00,36.2,31.2,29.46,North,0,13.0,19.0,82,0.00,,---,0.00,51.00,VWS V14.01,2013-01-29 16:35:00,
2013-01-29 10:40:00,36.2,31.2,29.46,NNW,338,10.0,16.0,82,0.00,,---,0.00,72.00,VWS V14.01,2013-01-29 16:40:00,
2013-01-29 10:45:00,36.2,31.2,29.47,North,0,13.0,16.0,82,0.00,,---,0.00,95.00,VWS V14.01,2013-01-29 16:45:00,
2013-01-29 10:50:00,36.2,31.2,29.47,North,0,12.0,16.0,82,0.00,,---,0.00,95.00,VWS V14.01,2013-01-29 16:50:00,
2013-01-29 10:55:00,36.2,31.2,29.47,North,0,10.0,13.0,82,0.00,,---,0.00,88.00,VWS V14.01,2013-01-29 16:55:00,
2013-01-29 11:00:00,36.5,31.5,29.48,North,0,9.0,13.0,82,0.00,,---,0.00,87.00,VWS V14.01,2013-01-29 17:00:00,
2013-01-29 11:05:00,36.5,31.2,29.48,North,0,11.0,13.0,81,0.00,,---,0.00,91.00,VWS V14.01,2013-01-29 17:05:00,
2013-01-29 11:10:00,36.6,31.3,29.48,North,0,10.0,12.0,81,0.00,,---,0.00,91.00,VWS V14.01,2013-01-29 17:10:00,
2013-01-29 11:15:00,36.6,31.3,29.48,North,0,11.0,16.0,81,0.00,,---,0.00,94.00,VWS V14.01,2013-01-29 17:15:00,
2013-01-29 11:20:00,36.6,31.0,29.48,North,0,11.0,14.0,80,0.00,,---,0.00,96.00,VWS V14.01,2013-01-29 17:20:00,
2013-01-29 11:25:00,36.6,31.0,29.48,North,0,10.0,13.0,80,0.00,,---,0.00,108.00,VWS V14.01,2013-01-29 17:25:00,
2013-01-29 11:30:00,36.6,31.0,29.47,North,0,10.0,14.0,80,0.00,,---,0.00,75.00,VWS V14.01,2013-01-29 17:30:00,
2013-01-29 11:35:00,36.6,31.0,29.47,North,0,9.0,12.0,80,0.00,,---,0.00,78.00,VWS V14.01,2013-01-29 17:35:00,
2013-01-29 11:40:00,36.8,31.2,29.47,North,0,9.0,13.0,80,0.00,,---,0.00,92.00,VWS V14.01,2013-01-29 17:40:00,
2013-01-29 11:45:00,36.8,31.2,29.46,North,0,11.0,16.0,80,0.00,,---,0.00,92.00,VWS V14.01,2013-01-29 17:45:00,
2013-01-29 11:50:00,36.8,31.2,29.46,NNE,22,12.0,16.0,80,0.00,,---,0.00,96.00,VWS V14.01,2013-01-29 17:50:00,
2013-01-29 11:55:00,36.6,31.0,29.46,ENE,68,12.0,18.0,80,0.00,,---,0.00,100.00,VWS V14.01,2013-01-29 17:55:00,
2013-01-29 12:00:00,36.8,31.2,29.45,North,0,11.0,13.0,80,0.00,,---,0.00,96.00,VWS V14.01,2013-01-29 18:00:00,
2013-01-29 12:05:00,36.9,31.3,29.45,North,0,11.0,17.0,80,0.00,,---,0.00,95.00,VWS V14.01,2013-01-29 18:05:00,
2013-01-29 12:10:00,36.9,31.0,29.45,North,0,12.0,16.0,79,0.00,,---,0.00,95.00,VWS V14.01,2013-01-29 18:10:00,
2013-01-29 12:15:00,36.8,30.9,29.43,North,0,13.0,18.0,79,0.00,,---,0.00,95.00,VWS V14.01,2013-01-29 18:15:00,
2013-01-29 12:20:00,36.6,30.7,29.43,North,0,12.0,18.0,79,0.00,,---,0.00,97.00,VWS V14.01,2013-01-29 18:20:00,
2013-01-29 12:25:00,36.6,30.7,29.43,North,0,13.0,19.0,79,0.00,,---,0.00,102.00,VWS V14.01,2013-01-29 18:25:00,
2013-01-29 12:30:00,36.5,30.6,29.42,North,0,13.0,18.0,79,0.00,,---,0.00,90.00,VWS V14.01,2013-01-29 18:30:00,
2013-01-29 12:35:00,36.5,30.6,29.42,North,0,15.0,20.0,79,0.00,,---,0.00,87.00,VWS V14.01,2013-01-29 18:35:00,
2013-01-29 12:40:00,36.3,30.7,29.42,North,0,14.0,19.0,80,0.00,,---,0.00,94.00,VWS V14.01,2013-01-29 18:40:00,
2013-01-29 12:45:00,36.3,30.7,29.43,North,0,13.0,18.0,80,0.00,,---,0.00,93.00,VWS V14.01,2013-01-29 18:45:00,
2013-01-29 12:50:00,36.5,30.9,29.43,North,0,13.0,19.0,80,0.00,,---,0.00,116.00,VWS V14.01,2013-01-29 18:50:00,
2013-01-29 12:55:00,36.5,30.9,29.43,North,0,11.0,19.0,80,0.00,,---,0.00,132.00,VWS V14.01,2013-01-29 18:55:00,
2013-01-29 13:00:00,36.5,30.9,29.42,North,0,13.0,18.0,80,0.00,,---,0.00,125.00,VWS V14.01,2013-01-29 19:00:00,
2013-01-29 13:05:00,36.6,31.0,29.42,North,0,12.0,17.0,80,0.00,,---,0.00,109.00,VWS V14.01,2013-01-29 19:05:00,
2013-01-29 13:10:00,36.0,30.4,29.39,North,359,14.0,20.0,80,0.00,,---,0.00,84.00,VWS V14.01,2013-01-29 19:10:00,
2013-01-29 13:15:00,36.2,30.9,29.42,NNW,337,12.0,19.0,81,0.00,,---,0.00,70.00,VWS V14.01,2013-01-29 19:15:00,
2013-01-29 13:20:00,36.3,30.7,29.42,NNW,347,11.0,15.0,80,0.00,,---,0.00,70.00,VWS V14.01,2013-01-29 19:20:00,
2013-01-29 13:25:00,36.5,30.9,29.42,North,0,10.0,20.0,80,0.00,,---,0.00,65.00,VWS V14.01,2013-01-29 19:25:00,
2013-01-29 13:30:00,36.3,30.4,29.41,North,0,16.0,19.0,79,0.00,,---,0.00,65.00,VWS V14.01,2013-01-29 19:30:00,
2013-01-29 13:31:00,36.8,30.9,29.41,NE,54,14.0,14.0,79,0.00,,---,0.00,114.00,VWS V14.01,2013-01-29 19:31:00,
2013-01-29 13:35:00,36.6,30.7,29.41,North,0,18.0,21.0,79,0.00,,---,0.00,125.00,VWS V14.01,2013-01-29 19:35:00,
2013-01-29 13:36:00,36.6,30.7,29.41,North,0,11.0,18.0,79,0.00,,---,0.00,102.00,VWS V14.01,2013-01-29 19:36:00,
2013-01-29 13:40:00,36.6,30.7,29.41,North,6,17.0,20.0,79,0.00,,---,0.00,118.00,VWS V14.01,2013-01-29 19:40:00,
2013-01-29 13:41:00,36.6,30.7,29.41,South,181,16.0,19.0,79,0.00,,---,0.00,91.00,VWS V14.01,2013-01-29 19:41:00,
2013-01-29 13:45:00,36.5,30.6,29.41,North,0,16.0,19.0,79,0.00,,---,0.00,174.00,VWS V14.01,2013-01-29 19:45:00,
2013-01-29 13:46:00,36.5,30.9,29.41,North,353,17.0,18.0,80,0.00,,---,0.00,109.00,VWS V14.01,2013-01-29 19:46:00,
2013-01-29 13:50:00,36.5,30.6,29.41,North,350,13.0,19.0,79,0.00,,---,0.00,111.00,VWS V14.01,2013-01-29 19:50:00,
2013-01-29 13:51:00,36.3,30.7,29.41,North,0,18.0,19.0,80,0.00,,---,0.00,84.00,VWS V14.01,2013-01-29 19:51:00,
2013-01-29 13:55:00,36.3,30.7,29.41,North,1,14.0,20.0,80,0.00,,---,0.00,74.00,VWS V14.01,2013-01-29 19:55:00,
2013-01-29 13:56:00,36.3,30.7,29.41,NW,304,17.0,20.0,80,0.00,,---,0.00,91.00,VWS V14.01,2013-01-29 19:56:00,
2013-01-29 14:00:00,36.0,30.4,29.39,East,100,18.0,20.0,80,0.00,,---,0.00,84.00,VWS V14.01,2013-01-29 20:00:00,
2013-01-29 14:01:00,36.0,30.4,29.39,North,0,17.0,19.0,80,0.00,,---,0.00,90.00,VWS V14.01,2013-01-29 20:01:00,
2013-01-29 14:05:00,35.9,30.3,29.39,NE,48,13.0,20.0,80,0.00,,---,0.00,81.00,VWS V14.01,2013-01-29 20:05:00,
2013-01-29 14:06:00,36.0,30.4,29.39,North,0,13.0,20.0,80,0.00,,---,0.00,86.00,VWS V14.01,2013-01-29 20:06:00,
2013-01-29 14:10:00,36.0,30.4,29.39,North,359,14.0,20.0,80,0.00,,---,0.00,84.00,VWS V14.01,2013-01-29 20:10:00,
2013-01-29 14:12:00,36.0,30.4,29.39,North,0,11.0,19.0,80,0.00,,---,0.00,109.00,VWS V14.01,2013-01-29 20:12:00,
2013-01-29 14:15:00,36.2,30.9,29.42,NNW,337,12.0,19.0,81,0.00,,---,0.00,70.00,VWS V14.01,2013-01-29 20:15:00,
2013-01-29 14:17:00,36.2,30.6,29.42,NNW,336,12.0,15.0,80,0.00,,---,0.00,67.00,VWS V14.01,2013-01-29 20:17:00,
2013-01-29 14:20:00,36.3,30.7,29.42,NNW,347,11.0,15.0,80,0.00,,---,0.00,70.00,VWS V14.01,2013-01-29 20:20:00,
2013-01-29 14:22:00,36.3,30.7,29.42,North,349,13.0,20.0,80,0.00,,---,0.00,65.00,VWS V14.01,2013-01-29 20:22:00,
2013-01-29 14:25:00,36.5,30.9,29.42,North,0,10.0,20.0,80,0.00,,---,0.00,65.00,VWS V14.01,2013-01-29 20:25:00,
2013-01-29 14:27:00,36.5,30.9,29.42,North,0,13.0,19.0,80,0.00,,---,0.00,70.00,VWS V14.01,2013-01-29 20:27:00,
2013-01-29 14:30:00,36.3,30.4,29.41,North,0,16.0,19.0,79,0.00,,---,0.00,65.00,VWS V14.01,2013-01-29 20:30:00,
2013-01-29 14:32:00,36.3,30.4,29.41,North,353,16.0,20.0,79,0.00,,---,0.00,58.00,VWS V14.01,2013-01-29 20:32:00,
2013-01-29 14:35:00,36.3,30.4,29.41,North,0,17.0,20.0,79,0.00,,---,0.00,63.00,VWS V14.01,2013-01-29 20:35:00,
2013-01-29 14:37:00,36.3,30.4,29.41,North,0,15.0,18.0,79,0.00,,---,0.00,67.00,VWS V14.01,2013-01-29 20:37:00,
2013-01-29 14:40:00,36.2,30.3,29.41,North,349,14.0,19.0,79,0.00,,---,0.00,69.00,VWS V14.01,2013-01-29 20:40:00,
2013-01-29 14:42:00,36.3,30.7,29.41,North,357,12.0,16.0,80,0.00,,---,0.00,69.00,VWS V14.01,2013-01-29 20:42:00,
2013-01-29 14:45:00,36.3,30.4,29.43,NE,54,16.0,17.0,79,0.00,,---,0.00,53.00,VWS V14.01,2013-01-29 20:45:00,
2013-01-29 14:47:00,36.2,30.3,29.43,NE,51,12.0,20.0,79,0.00,,---,0.00,49.00,VWS V14.01,2013-01-29 20:47:00,
2013-01-29 14:50:00,36.2,30.3,29.43,North,0,12.0,20.0,79,0.00,,---,0.00,46.00,VWS V14.01,2013-01-29 20:50:00,
2013-01-29 14:53:00,36.0,30.1,29.43,East,90,17.0,19.0,79,0.00,,---,0.00,42.00,VWS V14.01,2013-01-29 20:53:00,
2013-01-29 14:55:00,36.0,30.1,29.43,North,349,16.0,19.0,79,0.00,,---,0.00,48.00,VWS V14.01,2013-01-29 20:55:00,
2013-01-29 14:58:00,36.0,30.1,29.43,NW,311,11.0,18.0,79,0.00,,---,0.00,53.00,VWS V14.01,2013-01-29 20:58:00,
2013-01-29 15:00:00,36.2,30.6,29.43,North,357,11.0,18.0,80,0.00,,---,0.00,49.00,VWS V14.01,2013-01-29 21:00:00,
2013-01-29 15:03:00,36.0,30.1,29.43,North,356,15.0,19.0,79,0.00,,---,0.00,48.00,VWS V14.01,2013-01-29 21:03:00,
2013-01-29 15:05:00,36.0,30.1,29.43,North,359,14.0,19.0,79,0.00,,---,0.00,49.00,VWS V14.01,2013-01-29 21:05:00,
2013-01-29 15:08:00,36.0,30.1,29.43,NW,311,12.0,17.0,79,0.00,,---,0.00,56.00,VWS V14.01,2013-01-29 21:08:00,
2013-01-29 15:10:00,36.2,30.3,29.43,East,96,14.0,17.0,79,0.00,,---,0.00,55.00,VWS V14.01,2013-01-29 21:10:00,
2013-01-29 15:13:00,36.2,30.3,29.44,North,353,13.0,19.0,79,0.00,,---,0.00,58.00,VWS V14.01,2013-01-29 21:13:00,
2013-01-29 15:15:00,36.2,30.3,29.44,North,11,13.0,19.0,79,0.00,,---,0.00,58.00,VWS V14.01,2013-01-29 21:15:00,
2013-01-29 15:18:00,36.3,30.4,29.44,North,0,10.0,18.0,79,0.00,,---,0.00,48.00,VWS V14.01,2013-01-29 21:18:00,
2013-01-29 15:20:00,36.3,30.4,29.44,North,0,11.0,18.0,79,0.00,,---,0.00,48.00,VWS V14.01,2013-01-29 21:20:00,
2013-01-29 15:23:00,36.5,30.6,29.44,NNW,336,11.0,14.0,79,0.00,,---,0.00,53.00,VWS V14.01,2013-01-29 21:23:00,
2013-01-29 15:25:00,36.6,30.7,29.44,North,359,9.0,14.0,79,0.00,,---,0.00,56.00,VWS V14.01,2013-01-29 21:25:00,
2013-01-29 15:28:00,36.6,30.7,29.45,North,359,11.0,18.0,79,0.00,,---,0.00,60.00,VWS V14.01,2013-01-29 21:28:00,
2013-01-29 15:30:00,36.6,30.4,29.45,North,1,16.0,18.0,78,0.00,,---,0.00,55.00,VWS V14.01,2013-01-29 21:30:00,
2013-01-29 15:33:00,36.5,30.3,29.45,NE,52,15.0,19.0,78,0.00,,---,0.00,65.00,VWS V14.01,2013-01-29 21:33:00,
2013-01-29 15:35:00,36.5,30.3,29.45,ENE,66,17.0,19.0,78,0.00,,---,0.00,72.00,VWS V14.01,2013-01-29 21:35:00,
2013-01-29 15:39:00,36.5,30.3,29.45,North,0,19.0,19.0,78,0.00,,---,0.00,99.00,VWS V14.01,2013-01-29 21:39:00,
2013-01-29 15:40:00,36.5,30.3,29.45,ENE,69,15.0,19.0,78,0.00,,---,0.00,90.00,VWS V14.01,2013-01-29 21:40:00,
2013-01-29 15:44:00,36.6,30.4,29.41,East,95,20.0,20.0,78,0.00,,---,0.00,116.00,VWS V14.01,2013-01-29 21:44:00,
2013-01-29 15:45:00,36.6,30.4,29.41,NNE,17,20.0,21.0,78,0.00,,---,0.00,106.00,VWS V14.01,2013-01-29 21:45:00,
2013-01-29 15:49:00,36.5,30.3,29.41,NNE,18,15.0,21.0,78,0.00,,---,0.00,58.00,VWS V14.01,2013-01-29 21:49:00,
2013-01-29 15:50:00,36.5,30.3,29.41,North,0,15.0,21.0,78,0.00,,---,0.00,49.00,VWS V14.01,2013-01-29 21:50:00,
2013-01-29 15:54:00,36.6,30.7,29.41,NE,41,20.0,20.0,79,0.00,,---,0.00,53.00,VWS V14.01,2013-01-29 21:54:00,
2013-01-29 15:55:00,36.6,30.7,29.41,NE,41,20.0,20.0,79,0.00,,---,0.00,53.00,VWS V14.01,2013-01-29 21:55:00,
2013-01-29 15:59:00,36.5,30.6,29.41,NE,45,17.0,20.0,79,0.00,,---,0.00,23.00,VWS V14.01,2013-01-29 21:59:00,
2013-01-29 16:00:00,36.5,30.6,29.41,East,88,18.0,20.0,79,0.00,,---,0.00,23.00,VWS V14.01,2013-01-29 22:00:00,
2013-01-29 16:04:00,36.3,30.4,29.41,North,0,18.0,19.0,79,0.00,,---,0.00,28.00,VWS V14.01,2013-01-29 22:04:00,
2013-01-29 16:05:00,36.3,30.4,29.41,North,0,18.0,19.0,79,0.00,,---,0.00,28.00,VWS V14.01,2013-01-29 22:05:00,
2013-01-29 16:09:00,36.3,30.4,29.41,North,7,18.0,18.0,79,0.00,,---,0.00,35.00,VWS V14.01,2013-01-29 22:09:00,
2013-01-29 16:10:00,36.3,30.4,29.41,North,0,17.0,19.0,79,0.00,,---,0.00,35.00,VWS V14.01,2013-01-29 22:10:00,
2013-01-29 16:14:00,36.3,30.4,29.40,North,0,13.0,13.0,79,0.00,,---,0.00,26.00,VWS V14.01,2013-01-29 22:14:00,
2013-01-29 16:15:00,36.3,30.4,29.40,NNE,20,12.0,18.0,79,0.00,,---,0.00,26.00,VWS V14.01,2013-01-29 22:15:00,
2013-01-29 16:19:00,36.3,30.4,29.40,NE,49,13.0,13.0,79,0.00,,---,0.00,25.00,VWS V14.01,2013-01-29 22:19:00,
2013-01-29 16:20:00,36.3,30.4,29.40,ENE,73,13.0,22.0,79,0.00,,---,0.00,25.00,VWS V14.01,2013-01-29 22:20:00,
2013-01-29 16:24:00,36.3,30.4,29.40,NE,42,10.0,14.0,79,0.00,,---,0.00,18.00,VWS V14.01,2013-01-29 22:24:00,
2013-01-29 16:25:00,36.3,30.4,29.40,East,79,13.0,17.0,79,0.00,,---,0.00,18.00,VWS V14.01,2013-01-29 22:25:00,
2013-01-29 16:29:00,36.2,30.3,29.40,South,184,21.0,21.0,79,0.00,,---,0.00,26.00,VWS V14.01,2013-01-29 22:29:00,
2013-01-29 16:30:00,36.3,30.4,29.40,NW,313,17.0,22.0,79,0.00,,---,0.00,26.00,VWS V14.01,2013-01-29 22:30:00,
2013-01-29 16:35:00,36.2,30.3,29.40,SW,227,12.0,14.0,79,0.00,,---,0.00,30.00,VWS V14.01,2013-01-29 22:35:00,
2013-01-29 16:40:00,36.2,30.3,29.40,SW,219,12.0,16.0,79,0.00,,---,0.00,21.00,VWS V14.01,2013-01-29 22:40:00,
2013-01-29 16:45:00,36.2,30.3,29.43,NE,35,14.0,17.0,79,0.00,,---,0.00,14.00,VWS V14.01,2013-01-29 22:45:00,
2013-01-29 16:50:00,36.2,30.3,29.43,SW,226,15.0,20.0,79,0.00,,---,0.00,11.00,VWS V14.01,2013-01-29 22:50:00,
2013-01-29 16:55:00,36.0,30.1,29.43,SSW,203,16.0,18.0,79,0.00,,---,0.00,11.00,VWS V14.01,2013-01-29 22:55:00,
2013-01-29 17:00:00,36.0,30.4,29.44,South,191,11.0,16.0,80,0.00,,---,0.00,11.00,VWS V14.01,2013-01-29 23:00:00,
2013-01-29 17:05:00,35.9,30.3,29.44,West,260,13.0,13.0,80,0.00,,---,0.00,9.00,VWS V14.01,2013-01-29 23:05:00,
2013-01-29 17:10:00,35.9,30.3,29.44,SW,227,8.0,11.0,80,0.00,,---,0.00,0.00,VWS V14.01,2013-01-29 23:10:00,
2013-01-29 17:15:00,35.9,30.6,29.47,WSW,237,7.0,13.0,81,0.00,,---,0.00,0.00,VWS V14.01,2013-01-29 23:15:00,
2013-01-29 17:16:00,35.9,30.6,29.47,SW,234,11.0,14.0,81,0.00,,---,0.00,0.00,VWS V14.01,2013-01-29 23:16:00,
2013-01-29 17:20:00,35.8,30.9,29.47,NW,315,15.0,16.0,82,0.00,,---,0.00,5.00,VWS V14.01,2013-01-29 23:20:00,
2013-01-29 17:21:00,35.8,30.9,29.47,East,96,9.0,15.0,82,0.00,,---,0.00,0.00,VWS V14.01,2013-01-29 23:21:00,
2013-01-29 17:25:00,35.6,30.7,29.47,WSW,244,13.0,16.0,82,0.00,,---,0.00,0.00,VWS V14.01,2013-01-29 23:25:00,
2013-01-29 17:26:00,35.6,30.7,29.47,East,95,11.0,17.0,82,0.00,,---,0.00,0.00,VWS V14.01,2013-01-29 23:26:00,
2013-01-29 17:30:00,35.6,30.7,29.45,NW,315,11.0,17.0,82,0.00,,---,0.00,0.00,VWS V14.01,2013-01-29 23:30:00,
2013-01-29 17:31:00,35.6,31.0,29.45,WNW,302,13.0,16.0,83,0.00,,---,0.00,0.00,VWS V14.01,2013-01-29 23:31:00,
2013-01-29 17:35:00,35.6,31.0,29.45,South,175,10.0,16.0,83,0.00,,---,0.00,0.00,VWS V14.01,2013-01-29 23:35:00,
2013-01-29 17:36:00,35.6,31.0,29.45,ESE,110,8.0,12.0,83,0.00,,---,0.00,0.00,VWS V14.01,2013-01-29 23:36:00,
2013-01-29 17:40:00,35.6,31.0,29.45,East,92,11.0,12.0,83,0.00,,---,0.00,0.00,VWS V14.01,2013-01-29 23:40:00,
2013-01-29 17:41:00,35.6,31.0,29.45,NE,49,11.0,13.0,83,0.00,,---,0.00,0.00,VWS V14.01,2013-01-29 23:41:00,
2013-01-29 17:45:00,35.6,31.0,29.45,West,278,11.0,13.0,83,0.00,,---,0.00,0.00,VWS V14.01,2013-01-29 23:45:00,
2013-01-29 17:46:00,35.5,31.1,29.45,SW,234,10.0,13.0,84,0.00,,---,0.00,0.00,VWS V14.01,2013-01-29 23:46:00,
2013-01-29 17:50:00,35.5,31.1,29.45,NNW,342,12.0,13.0,84,0.00,,---,0.00,0.00,VWS V14.01,2013-01-29 23:50:00,
2013-01-29 17:51:00,35.5,31.1,29.45,ESE,107,10.0,13.0,84,0.00,,---,0.00,0.00,VWS V14.01,2013-01-29 23:51:00,
2013-01-29 17:55:00,35.5,31.1,29.45,ENE,58,10.0,13.0,84,0.00,,---,0.00,0.00,VWS V14.01,2013-01-29 23:55:00,
2013-01-29 17:56:00,35.5,31.1,29.45,North,0,10.0,12.0,84,0.00,,---,0.00,0.00,VWS V14.01,2013-01-29 23:56:00,
2013-01-29 18:00:00,35.5,31.5,29.46,SSW,206,6.0,12.0,85,0.00,,---,0.00,0.00,VWS V14.01,2013-01-30 00:00:00,
2013-01-29 18:02:00,35.5,31.5,29.46,North,359,10.0,11.0,85,0.00,,---,0.00,0.00,VWS V14.01,2013-01-30 00:02:00,
2013-01-29 18:05:00,35.5,31.5,29.46,WNW,291,6.0,11.0,85,0.00,,---,0.00,0.00,VWS V14.01,2013-01-30 00:05:00,
2013-01-29 18:07:00,35.5,31.5,29.46,NNW,346,8.0,14.0,85,0.00,,---,0.00,0.00,VWS V14.01,2013-01-30 00:07:00,
2013-01-29 18:10:00,35.5,31.5,29.46,North,0,8.0,14.0,85,0.00,,---,0.00,0.00,VWS V14.01,2013-01-30 00:10:00,
2013-01-29 18:12:00,35.5,31.5,29.46,NW,325,7.0,11.0,85,0.00,,---,0.00,0.00,VWS V14.01,2013-01-30 00:12:00,
2013-01-29 18:15:00,35.5,31.5,29.45,ENE,58,8.0,11.0,85,0.00,,---,0.00,0.00,VWS V14.01,2013-01-30 00:15:00,
2013-01-29 18:17:00,35.3,31.2,29.45,North,0,11.0,13.0,85,0.00,,---,0.00,0.00,VWS V14.01,2013-01-30 00:17:00,
2013-01-29 18:20:00,35.3,31.2,29.45,North,350,10.0,13.0,85,0.00,,---,0.00,0.00,VWS V14.01,2013-01-30 00:20:00,
2013-01-29 18:22:00,35.3,31.2,29.45,North,0,10.0,11.0,85,0.00,,---,0.00,0.00,VWS V14.01,2013-01-30 00:22:00,
2013-01-29 18:25:00,35.3,31.2,29.45,SSE,151,10.0,12.0,85,0.00,,---,0.00,0.00,VWS V14.01,2013-01-30 00:25:00,
2013-01-29 18:28:00,35.2,31.1,29.45,West,265,11.0,17.0,85,0.00,,---,0.00,0.00,VWS V14.01,2013-01-30 00:28:00,
2013-01-29 18:30:00,35.2,31.1,29.44,North,0,13.0,17.0,85,0.00,,---,0.00,0.00,VWS V14.01,2013-01-30 00:30:00,
2013-01-29 18:33:00,35.0,31.2,29.44,NNW,328,13.0,13.0,86,0.00,,---,0.00,0.00,VWS V14.01,2013-01-30 00:33:00,
2013-01-29 18:35:00,35.2,31.4,29.44,NNW,347,7.0,13.0,86,0.00,,---,0.00,0.00,VWS V14.01,2013-01-30 00:35:00,
2013-01-29 18:38:00,35.0,31.2,29.44,SW,232,11.0,13.0,86,0.00,,---,0.00,0.00,VWS V14.01,2013-01-30 00:38:00,
2013-01-29 18:40:00,35.0,31.2,29.44,West,278,7.0,13.0,86,0.00,,---,0.00,0.00,VWS V14.01,2013-01-30 00:40:00,
2013-01-29 18:43:00,35.0,31.2,29.44,NE,41,11.0,12.0,86,0.00,,---,0.00,0.00,VWS V14.01,2013-01-30 00:43:00,
2013-01-29 18:45:00,35.0,31.2,29.43,SW,222,13.0,13.0,86,0.00,,---,0.00,0.00,VWS V14.01,2013-01-30 00:45:00,
2013-01-29 18:48:00,34.9,31.1,29.43,NNE,32,9.0,13.0,86,0.00,,---,0.00,0.00,VWS V14.01,2013-01-30 00:48:00,
2013-01-29 18:50:00,34.9,31.1,29.43,WNW,298,7.0,13.0,86,0.00,,---,0.00,0.00,VWS V14.01,2013-01-30 00:50:00,
2013-01-29 18:53:00,34.9,31.4,29.43,WSW,243,10.0,12.0,87,0.00,,---,0.00,0.00,VWS V14.01,2013-01-30 00:53:00,
2013-01-29 18:55:00,34.9,31.4,29.43,West,263,9.0,12.0,87,0.00,,---,0.00,0.00,VWS V14.01,2013-01-30 00:55:00,
2013-01-29 18:58:00,34.9,31.4,29.46,NE,49,7.0,11.0,87,0.00,,---,0.00,0.00,VWS V14.01,2013-01-30 00:58:00,
2013-01-29 19:00:00,34.9,31.4,29.46,North,10,6.0,11.0,87,0.00,,---,0.00,0.00,VWS V14.01,2013-01-30 01:00:00,
2013-01-29 19:03:00,34.9,31.7,29.46,West,265,7.0,10.0,88,0.00,,---,0.00,0.00,VWS V14.01,2013-01-30 01:03:00,
2013-01-29 19:05:00,34.9,31.7,29.46,North,0,8.0,10.0,88,0.00,,---,0.00,0.00,VWS V14.01,2013-01-30 01:05:00,
2013-01-29 19:09:00,34.9,31.7,29.46,North,0,12.0,12.0,88,0.00,,---,0.00,0.00,VWS V14.01,2013-01-30 01:09:00,
2013-01-29 19:10:00,34.9,31.7,29.46,North,0,9.0,12.0,88,0.00,,---,0.00,0.00,VWS V14.01,2013-01-30 01:10:00,
2013-01-29 19:14:00,34.9,31.7,29.44,NE,40,10.0,12.0,88,0.00,,---,0.00,0.00,VWS V14.01,2013-01-30 01:14:00,
2013-01-29 19:15:00,34.9,31.7,29.44,ESE,104,10.0,12.0,88,0.00,,---,0.00,0.00,VWS V14.01,2013-01-30 01:15:00,
2013-01-29 19:19:00,34.7,31.5,29.44,SW,233,11.0,13.0,88,0.00,,---,0.00,0.00,VWS V14.01,2013-01-30 01:19:00,
2013-01-29 19:20:00,34.7,31.5,29.44,NE,56,12.0,13.0,88,0.00,,---,0.00,0.00,VWS V14.01,2013-01-30 01:20:00,
2013-01-29 19:24:00,34.7,31.8,29.44,North,0,6.0,12.0,89,0.00,,---,0.00,0.00,VWS V14.01,2013-01-30 01:24:00,
2013-01-29 19:25:00,34.7,31.8,29.44,North,0,5.0,12.0,89,0.00,,---,0.00,0.00,VWS V14.01,2013-01-30 01:25:00,
2013-01-29 19:29:00,34.7,31.8,29.45,North,6,5.0,10.0,89,0.00,,---,0.00,0.00,VWS V14.01,2013-01-30 01:29:00,
2013-01-29 19:30:00,34.7,31.8,29.45,NNE,28,5.0,10.0,89,0.00,,---,0.00,0.00,VWS V14.01,2013-01-30 01:30:00,
2013-01-29 19:34:00,34.7,31.8,29.45,North,359,5.0,7.0,89,0.00,,---,0.00,0.00,VWS V14.01,2013-01-30 01:34:00,
2013-01-29 19:35:00,34.7,31.8,29.45,North,359,5.0,7.0,89,0.00,,---,0.00,0.00,VWS V14.01,2013-01-30 01:35:00,
2013-01-29 19:39:00,34.7,31.8,29.45,North,0,8.0,11.0,89,0.00,,---,0.00,0.00,VWS V14.01,2013-01-30 01:39:00,
2013-01-29 19:40:00,34.7,31.8,29.45,North,0,8.0,11.0,89,0.00,,---,0.00,0.00,VWS V14.01,2013-01-30 01:40:00,
2013-01-29 19:44:00,34.6,31.7,29.46,NE,37,11.0,11.0,89,0.00,,---,0.00,0.00,VWS V14.01,2013-01-30 01:44:00,
2013-01-29 19:45:00,34.6,31.7,29.46,NNW,340,10.0,15.0,89,0.00,,---,0.00,0.00,VWS V14.01,2013-01-30 01:45:00,
2013-01-29 19:49:00,34.6,32.0,29.46,North,0,10.0,11.0,90,0.00,,---,0.00,0.00,VWS V14.01,2013-01-30 01:49:00,
2013-01-29 19:50:00,34.6,32.0,29.46,North,359,10.0,13.0,90,0.00,,---,0.00,0.00,VWS V14.01,2013-01-30 01:50:00,
2013-01-29 19:54:00,34.3,31.4,29.46,NE,37,14.0,16.0,89,0.00,,---,0.00,0.00,VWS V14.01,2013-01-30 01:54:00,
2013-01-29 19:55:00,34.3,31.4,29.46,ENE,69,13.0,18.0,89,0.00,,---,0.00,0.00,VWS V14.01,2013-01-30 01:55:00,
2013-01-29 19:59:00,34.1,31.2,29.45,ESE,117,16.0,17.0,89,0.00,,---,0.00,0.00,VWS V14.01,2013-01-30 01:59:00,
2013-01-29 20:00:00,34.1,31.2,29.45,North,354,17.0,20.0,89,0.00,,---,0.00,0.00,VWS V14.01,2013-01-30 02:00:00,
2013-01-29 20:04:00,34.0,31.1,29.45,SE,128,12.0,13.0,89,0.00,,---,0.00,0.00,VWS V14.01,2013-01-30 02:04:00,
2013-01-29 20:05:00,34.0,31.1,29.45,ENE,78,10.0,19.0,89,0.00,,---,0.00,0.00,VWS V14.01,2013-01-30 02:05:00,
2013-01-29 20:10:00,33.8,30.9,29.45,NNE,18,17.0,17.0,89,0.00,,---,0.00,0.00,VWS V14.01,2013-01-30 02:10:00,
2013-01-29 20:15:00,33.7,30.8,29.43,ENE,61,12.0,13.0,89,0.00,,---,0.00,0.00,VWS V14.01,2013-01-30 02:15:00,
2013-01-29 20:20:00,33.5,30.6,29.43,North,0,11.0,19.0,89,0.00,,---,0.00,0.00,VWS V14.01,2013-01-30 02:20:00,
2013-01-29 20:25:00,33.5,30.6,29.43,North,0,12.0,15.0,89,0.00,,---,0.00,0.00,VWS V14.01,2013-01-30 02:25:00,
2013-01-29 20:30:00,33.5,30.6,29.44,North,354,12.0,13.0,89,0.00,,---,0.00,0.00,VWS V14.01,2013-01-30 02:30:00,
2013-01-29 20:35:00,33.5,30.6,29.44,SSE,151,13.0,17.0,89,0.00,,---,0.00,0.00,VWS V14.01,2013-01-30 02:35:00,
2013-01-29 20:40:00,33.5,30.6,29.44,NNE,16,7.0,10.0,89,0.00,,---,0.00,0.00,VWS V14.01,2013-01-30 02:40:00,
2013-01-29 20:45:00,33.7,30.8,29.43,North,0,11.0,16.0,89,0.00,,---,0.00,0.00,VWS V14.01,2013-01-30 02:45:00,
2013-01-29 20:50:00,33.5,30.6,29.43,NNE,32,11.0,14.0,89,0.00,,---,0.00,0.00,VWS V14.01,2013-01-30 02:50:00,
2013-01-29 20:55:00,33.5,30.6,29.43,North,356,7.0,10.0,89,0.00,,---,0.00,0.00,VWS V14.01,2013-01-30 02:55:00,
2013-01-29 21:00:00,33.5,30.6,29.49,North,0,5.0,10.0,89,0.00,,---,0.00,0.00,VWS V14.01,2013-01-30 03:00:00,
2013-01-29 21:05:00,33.5,30.6,29.49,North,0,12.0,14.0,89,0.00,,---,0.00,0.00,VWS V14.01,2013-01-30 03:05:00,
2013-01-29 21:10:00,33.5,30.6,29.49,North,0,8.0,12.0,89,0.00,,---,0.00,0.00,VWS V14.01,2013-01-30 03:10:00,
2013-01-29 21:15:00,33.5,30.6,29.49,North,0,10.0,12.0,89,0.00,,---,0.00,0.00,VWS V14.01,2013-01-30 03:15:00,
2013-01-29 21:16:00,33.5,30.6,29.49,North,354,10.0,10.0,89,0.00,,---,0.00,0.00,VWS V14.01,2013-01-30 03:16:00,
2013-01-29 21:20:00,33.4,30.5,29.49,North,359,10.0,12.0,89,0.00,,---,0.00,0.00,VWS V14.01,2013-01-30 03:20:00,
2013-01-29 21:21:00,33.4,30.5,29.49,NE,42,7.0,12.0,89,0.00,,---,0.00,0.00,VWS V14.01,2013-01-30 03:21:00,
2013-01-29 21:25:00,33.4,30.5,29.49,North,0,9.0,14.0,89,0.00,,---,0.00,0.00,VWS V14.01,2013-01-30 03:25:00,
2013-01-29 21:26:00,33.4,30.8,29.49,North,354,10.0,14.0,90,0.00,,---,0.00,0.00,VWS V14.01,2013-01-30 03:26:00,
2013-01-29 21:30:00,33.4,30.8,29.49,North,0,12.0,15.0,90,0.00,,---,0.00,0.00,VWS V14.01,2013-01-30 03:30:00,
2013-01-29 21:31:00,33.2,30.6,29.49,North,0,13.0,18.0,90,0.00,,---,0.00,0.00,VWS V14.01,2013-01-30 03:31:00,
2013-01-29 21:35:00,33.2,30.6,29.49,North,4,11.0,18.0,90,0.00,,---,0.00,0.00,VWS V14.01,2013-01-30 03:35:00,
2013-01-29 21:36:00,33.2,30.6,29.49,North,359,12.0,13.0,90,0.00,,---,0.00,0.00,VWS V14.01,2013-01-30 03:36:00,
2013-01-29 21:40:00,33.1,30.5,29.49,SSE,168,14.0,17.0,90,0.00,,---,0.00,0.00,VWS V14.01,2013-01-30 03:40:00,
2013-01-29 21:41:00,32.9,30.6,29.49,NW,320,15.0,17.0,91,0.00,,---,0.00,0.00,VWS V14.01,2013-01-30 03:41:00,
2013-01-29 21:45:00,32.8,30.5,29.47,North,0,12.0,17.0,91,0.00,,---,0.00,0.00,VWS V14.01,2013-01-30 03:45:00,
2013-01-29 21:46:00,32.8,30.7,29.47,North,0,13.0,14.0,92,0.00,,---,0.00,0.00,VWS V14.01,2013-01-30 03:46:00,
2013-01-29 21:50:00,32.7,30.6,29.47,North,0,8.0,14.0,92,0.00,,---,0.00,0.00,VWS V14.01,2013-01-30 03:50:00,
2013-01-29 21:51:00,32.7,30.6,29.47,NNW,343,11.0,13.0,92,0.00,,---,0.00,0.00,VWS V14.01,2013-01-30 03:51:00,
2013-01-29 21:55:00,32.5,30.4,29.47,North,0,8.0,13.0,92,0.00,,---,0.00,0.00,VWS V14.01,2013-01-30 03:55:00,
2013-01-29 21:56:00,32.5,30.4,29.47,North,359,6.0,9.0,92,0.00,,---,0.00,0.00,VWS V14.01,2013-01-30 03:56:00,
2013-01-29 22:00:00,32.5,30.7,29.47,North,0,7.0,12.0,93,0.00,,---,0.00,0.00,VWS V14.01,2013-01-30 04:00:00,
2013-01-29 22:01:00,32.5,30.7,29.47,West,274,7.0,11.0,93,0.00,,---,0.00,0.00,VWS V14.01,2013-01-30 04:01:00,
2013-01-29 22:05:00,32.5,30.7,29.47,North,0,12.0,14.0,93,0.00,,---,0.00,0.00,VWS V14.01,2013-01-30 04:05:00,
2013-01-29 22:06:00,32.4,30.6,29.47,North,0,11.0,14.0,93,0.00,,---,0.00,0.00,VWS V14.01,2013-01-30 04:06:00,
2013-01-29 22:10:00,32.5,30.7,29.47,North,356,12.0,14.0,93,0.00,,---,0.00,0.00,VWS V14.01,2013-01-30 04:10:00,
2013-01-29 22:11:00,32.5,31.0,29.47,North,350,7.0,13.0,94,0.00,,---,0.00,0.00,VWS V14.01,2013-01-30 04:11:00,
2013-01-29 22:15:00,32.4,30.9,29.47,North,0,3.0,13.0,94,0.00,,---,0.00,0.00,VWS V14.01,2013-01-30 04:15:00,
2013-01-29 22:17:00,32.4,30.9,29.47,NNW,347,6.0,12.0,94,0.00,,---,0.00,0.00,VWS V14.01,2013-01-30 04:17:00,
2013-01-29 22:20:00,32.4,30.9,29.47,North,0,10.0,12.0,94,0.00,,---,0.00,0.00,VWS V14.01,2013-01-30 04:20:00,
2013-01-29 22:22:00,32.5,31.0,29.47,NNW,336,3.0,11.0,94,0.00,,---,0.00,0.00,VWS V14.01,2013-01-30 04:22:00,
2013-01-29 22:25:00,32.5,31.0,29.47,NW,315,9.0,12.0,94,0.00,,---,0.00,0.00,VWS V14.01,2013-01-30 04:25:00,
2013-01-29 22:27:00,32.5,31.2,29.47,NW,304,8.0,12.0,95,0.00,,---,0.00,0.00,VWS V14.01,2013-01-30 04:27:00,
2013-01-29 22:30:00,32.4,31.1,29.48,North,350,6.0,12.0,95,0.00,,---,0.00,0.00,VWS V14.01,2013-01-30 04:30:00,
2013-01-29 22:32:00,32.5,31.2,29.48,WNW,302,7.0,11.0,95,0.00,,---,0.00,0.00,VWS V14.01,2013-01-30 04:32:00,
2013-01-29 22:35:00,32.7,31.4,29.48,NNW,340,8.0,11.0,95,0.00,,---,0.00,0.00,VWS V14.01,2013-01-30 04:35:00,
2013-01-29 22:37:00,32.5,31.2,29.48,WNW,302,7.0,11.0,95,0.00,,---,0.00,0.00,VWS V14.01,2013-01-30 04:37:00,
2013-01-29 22:40:00,32.5,31.2,29.48,NW,319,7.0,11.0,95,0.00,,---,0.00,0.00,VWS V14.01,2013-01-30 04:40:00,
2013-01-29 22:42:00,32.5,31.5,29.48,NW,315,11.0,13.0,96,0.00,,---,0.00,0.00,VWS V14.01,2013-01-30 04:42:00,
2013-01-29 22:45:00,32.5,31.5,29.48,North,349,11.0,13.0,96,0.00,,---,0.00,0.00,VWS V14.01,2013-01-30 04:45:00,
2013-01-29 22:47:00,32.7,31.7,29.48,WNW,299,11.0,16.0,96,0.00,,---,0.00,0.00,VWS V14.01,2013-01-30 04:47:00,
2013-01-29 22:50:00,32.5,31.8,29.48,NW,304,16.0,18.0,97,0.00,,---,0.00,0.00,VWS V14.01,2013-01-30 04:50:00,
2013-01-29 22:52:00,32.5,31.7,29.48,North,0,17.0,20.0,97,0.00,,---,0.00,0.00,VWS V14.01,2013-01-30 04:52:00,
2013-01-29 22:55:00,32.5,31.8,29.48,West,263,21.0,21.0,97,0.00,,---,0.00,0.00,VWS V14.01,2013-01-30 04:55:00,
2013-01-29 22:57:00,32.5,31.7,29.48,NW,312,14.0,24.0,97,0.00,,---,0.00,0.00,VWS V14.01,2013-01-30 04:57:00,
2013-01-29 23:00:00,32.7,31.9,29.48,NNW,342,11.0,13.0,97,0.00,,---,0.00,0.00,VWS V14.01,2013-01-30 05:00:00,
2013-01-29 23:02:00,32.5,32.0,29.48,North,0,10.0,16.0,98,0.00,,---,0.00,0.00,VWS V14.01,2013-01-30 05:02:00,
2013-01-29 23:03:00,32.5,32.0,29.48,North,0,13.0,16.0,98,0.00,,---,0.00,0.00,VWS V14.01,2013-01-30 05:03:00,
2013-01-29 23:05:00,32.5,32.0,29.48,NNW,344,11.0,15.0,98,0.00,,---,0.00,0.00,VWS V14.01,2013-01-30 05:05:00,
2013-01-29 23:10:00,32.4,31.9,29.48,North,0,14.0,17.0,98,0.00,,---,0.00,0.00,VWS V14.01,2013-01-30 05:10:00,
2013-01-29 23:11:00,32.7,32.2,29.48,NE,35,17.0,20.0,98,0.00,,---,0.00,0.00,VWS V14.01,2013-01-30 05:11:00,
2013-01-29 23:15:00,32.5,32.0,29.49,WNW,287,16.0,22.0,98,0.00,,---,0.00,0.00,VWS V14.01,2013-01-30 05:15:00,
2013-01-29 23:16:00,32.4,31.9,29.49,North,350,13.0,16.0,98,0.00,,---,0.00,0.00,VWS V14.01,2013-01-30 05:16:00,
2013-01-29 23:20:00,32.4,31.9,29.49,NW,326,10.0,20.0,98,0.00,,---,0.00,0.00,VWS V14.01,2013-01-30 05:20:00,
2013-01-29 23:21:00,32.4,31.9,29.49,NW,309,10.0,21.0,98,0.00,,---,0.00,0.00,VWS V14.01,2013-01-30 05:21:00,
2013-01-29 23:25:00,32.2,31.7,29.49,NNW,346,20.0,26.0,98,0.00,,---,0.00,0.00,VWS V14.01,2013-01-30 05:25:00,
2013-01-29 23:26:00,32.2,31.7,29.49,NW,305,17.0,24.0,98,0.00,,---,0.00,0.00,VWS V14.01,2013-01-30 05:26:00,
2013-01-29 23:30:00,32.2,31.7,29.50,NNW,328,19.0,24.0,98,0.00,,---,0.00,0.00,VWS V14.01,2013-01-30 05:30:00,
2013-01-29 23:31:00,32.2,31.7,29.50,North,0,16.0,19.0,98,0.00,,---,0.00,0.00,VWS V14.01,2013-01-30 05:31:00,
2013-01-29 23:35:00,32.1,31.6,29.50,NNW,340,19.0,20.0,98,0.00,,---,0.00,0.00,VWS V14.01,2013-01-30 05:35:00,
2013-01-29 23:36:00,31.9,31.4,29.50,NW,322,18.0,22.0,98,0.00,,---,0.00,0.00,VWS V14.01,2013-01-30 05:36:00,
2013-01-29 23:40:00,32.2,31.7,29.50,NNW,347,11.0,24.0,98,0.00,,---,0.00,0.00,VWS V14.01,2013-01-30 05:40:00,
2013-01-29 23:41:00,32.2,32.0,29.50,NNW,344,16.0,19.0,99,0.00,,---,0.00,0.00,VWS V14.01,2013-01-30 05:41:00,
2013-01-29 23:45:00,32.1,31.9,29.50,WSW,241,21.0,24.0,99,0.00,,---,0.00,0.00,VWS V14.01,2013-01-30 05:45:00,
2013-01-29 23:46:00,32.1,31.9,29.50,North,0,11.0,26.0,99,0.00,,---,0.00,0.00,VWS V14.01,2013-01-30 05:46:00,
2013-01-29 23:50:00,32.1,31.9,29.50,West,272,13.0,26.0,99,0.00,,---,0.00,0.00,VWS V14.01,2013-01-30 05:50:00,
2013-01-29 23:51:00,31.9,31.6,29.50,NW,322,16.0,24.0,99,0.00,,---,0.00,0.00,VWS V14.01,2013-01-30 05:51:00,
2013-01-29 23:55:00,31.8,31.5,29.50,North,0,18.0,25.0,99,0.00,,---,0.00,0.00,VWS V14.01,2013-01-30 05:55:00,
2013-01-29 23:56:00,31.9,31.6,29.50,WSW,247,17.0,22.0,99,0.00,,---,0.00,0.00,VWS V14.01,2013-01-30 05:56:00,